^^
Saratoga-Weather Station Historical Data
Daily Summary for July 10, 2021 Units:  Both    English   Metric
Daily Weekly Monthly Yearly Custom
  High: Low: Average:
Temperature: 70.3 °F /  21.3 °C 60.8 °F /  16 °C 65.3 °F /  18.5 °C
Dew Point: 66 °F /  18.9 °C 59.7 °F /  15.4 °C 62.8 °F /  17.1 °C
Humidity: 97% 81% 92%
Wind Speed: 4.9mph /  7.9km/h - 0.5mph /  0.8km/h
Wind Gust: 8mph /  12.9km/h - -
Wind- - SW
Pressure: 30 in /  1015.6 hPa 29.9 in /  1012.2 hPa -
Precipitation: 0.19 in /  4.8 mm    
Historical Graphs
 
 
Tabular Data for July 10, 2021
Time Temperature Dew Point Pressure Wind Wind Speed Wind Gust Humidity Rainfall Rate (Hourly) solar
00:04 64 °F /  17.8 °C 62.1 °F /  16.7 °C 29.9in /  1012.5hPa Calm     93% 0in /  0.0mm 0 W/m2
00:09 64 °F /  17.8 °C 62.1 °F /  16.7 °C 29.9in /  1012.5hPa Calm     93% 0in /  0.0mm 0 W/m2
00:14 64 °F /  17.8 °C 62.1 °F /  16.7 °C 29.9in /  1012.5hPa Calm     93% 0in /  0.0mm 0 W/m2
00:19 64 °F /  17.8 °C 62.2 °F /  16.8 °C 29.9in /  1012.5hPa Calm     94% 0in /  0.0mm 0 W/m2
00:24 63.9 °F /  17.7 °C 62.1 °F /  16.7 °C 29.9in /  1012.5hPa Calm     94% 0in /  0.0mm 0 W/m2
00:29 63.9 °F /  17.7 °C 62.1 °F /  16.7 °C 29.9in /  1012.5hPa Calm     94% 0in /  0.0mm 0 W/m2
00:34 63.9 °F /  17.7 °C 62.1 °F /  16.7 °C 29.9in /  1012.5hPa Calm   2mph /  3.2km/h 94% 0in /  0.0mm 0 W/m2
00:39 64 °F /  17.8 °C 62.2 °F /  16.8 °C 29.9in /  1012.5hPa Calm     94% 0in /  0.0mm 0 W/m2
00:44 64 °F /  17.8 °C 62.2 °F /  16.8 °C 29.9in /  1012.5hPa NNW 0.9mph /  1.4km/h 2mph /  3.2km/h 94% 0in /  0.0mm 0 W/m2
00:49 64 °F /  17.8 °C 62.2 °F /  16.8 °C 29.9in /  1012.5hPa Calm   1mph /  1.6km/h 94% 0in /  0.0mm 0 W/m2
00:54 64.2 °F /  17.9 °C 62.4 °F /  16.9 °C 29.9in /  1012.5hPa Calm   1mph /  1.6km/h 94% 0in /  0.0mm 0 W/m2
00:59 64.2 °F /  17.9 °C 62.4 °F /  16.9 °C 29.9in /  1012.2hPa Calm     94% 0in /  0.0mm 0 W/m2
01:04 64.2 °F /  17.9 °C 62.4 °F /  16.9 °C 29.9in /  1012.2hPa WSW 0.9mph /  1.4km/h 3mph /  4.8km/h 94% 0in /  0.0mm 0 W/m2
01:09 64.6 °F /  18.1 °C 62.8 °F /  17.1 °C 29.9in /  1012.5hPa Calm   1mph /  1.6km/h 94% 0in /  0.0mm 0 W/m2
01:15 64.8 °F /  18.2 °C 63 °F /  17.2 °C 29.9in /  1012.5hPa NNE 2mph /  3.2km/h 3mph /  4.8km/h 94% 0in /  0.0mm 0 W/m2
01:20 64.9 °F /  18.3 °C 62.8 °F /  17.1 °C 29.9in /  1012.5hPa SW 0.9mph /  1.4km/h 2mph /  3.2km/h 93% 0in /  0.0mm 0 W/m2
01:25 64.9 °F /  18.3 °C 62.6 °F /  17 °C 29.9in /  1012.5hPa Calm   3mph /  4.8km/h 92% 0in /  0.0mm 0 W/m2
01:30 65.1 °F /  18.4 °C 62.8 °F /  17.1 °C 29.9in /  1012.5hPa Calm   1mph /  1.6km/h 92% 0in /  0.0mm 0 W/m2
01:35 65.1 °F /  18.4 °C 62.8 °F /  17.1 °C 29.9in /  1012.5hPa SE 2mph /  3.2km/h 2mph /  3.2km/h 92% 0in /  0.0mm 0 W/m2
01:40 65.1 °F /  18.4 °C 62.8 °F /  17.1 °C 29.9in /  1012.5hPa ESE 0.9mph /  1.4km/h 1mph /  1.6km/h 92% 0in /  0.0mm 0 W/m2
01:45 64.9 °F /  18.3 °C 62.6 °F /  17 °C 29.9in /  1012.5hPa Calm   2mph /  3.2km/h 92% 0in /  0.0mm 0 W/m2
01:50 64.9 °F /  18.3 °C 62.6 °F /  17 °C 29.9in /  1012.5hPa Calm   2mph /  3.2km/h 92% 0in /  0.0mm 0 W/m2
01:55 64.9 °F /  18.3 °C 62.6 °F /  17 °C 29.9in /  1012.5hPa Calm     92% 0in /  0.0mm 0 W/m2
02:00 64.9 °F /  18.3 °C 62.6 °F /  17 °C 29.9in /  1012.5hPa Calm   2mph /  3.2km/h 92% 0in /  0.0mm 0 W/m2
02:05 64.8 °F /  18.2 °C 62.4 °F /  16.9 °C 29.9in /  1012.5hPa Calm     92% 0in /  0.0mm 0 W/m2
02:10 64.6 °F /  18.1 °C 62.2 °F /  16.8 °C 29.9in /  1012.5hPa Calm     92% 0in /  0.0mm 0 W/m2
02:15 64.4 °F /  18 °C 62.4 °F /  16.9 °C 29.9in /  1012.5hPa East 2mph /  3.2km/h 3mph /  4.8km/h 93% 0in /  0.0mm 0 W/m2
02:20 64.2 °F /  17.9 °C 62.2 °F /  16.8 °C 29.9in /  1012.5hPa Calm   1mph /  1.6km/h 93% 0in /  0.0mm 0 W/m2
02:25 64 °F /  17.8 °C 62.1 °F /  16.7 °C 29.9in /  1012.5hPa Calm   3mph /  4.8km/h 93% 0in /  0.0mm 0 W/m2
02:30 64 °F /  17.8 °C 62.1 °F /  16.7 °C 29.9in /  1012.5hPa Calm   1mph /  1.6km/h 93% 0in /  0.0mm 0 W/m2
02:35 63.9 °F /  17.7 °C 61.9 °F /  16.6 °C 29.9in /  1012.5hPa Calm     93% 0in /  0.0mm 0 W/m2
02:40 63.7 °F /  17.6 °C 61.7 °F /  16.5 °C 29.9in /  1012.5hPa Calm     93% 0in /  0.0mm 0 W/m2
02:45 63.5 °F /  17.5 °C 61.5 °F /  16.4 °C 29.9in /  1012.5hPa Calm     93% 0in /  0.0mm 0 W/m2
02:50 63.3 °F /  17.4 °C 61.3 °F /  16.3 °C 29.9in /  1012.5hPa Calm     93% 0in /  0.0mm 0 W/m2
02:55 63.3 °F /  17.4 °C 61.5 °F /  16.4 °C 29.9in /  1012.5hPa Calm     94% 0in /  0.0mm 0 W/m2
03:00 63.1 °F /  17.3 °C 61.2 °F /  16.2 °C 29.9in /  1012.9hPa Calm     93% 0in /  0.0mm 0 W/m2
03:05 63.1 °F /  17.3 °C 61.3 °F /  16.3 °C 29.9in /  1012.9hPa Calm     94% 0in /  0.0mm 0 W/m2
03:10 63.1 °F /  17.3 °C 61.3 °F /  16.3 °C 29.9in /  1012.5hPa Calm     94% 0in /  0.0mm 0 W/m2
03:15 63 °F /  17.2 °C 61.2 °F /  16.2 °C 29.9in /  1012.5hPa Calm     94% 0in /  0.0mm 0 W/m2
03:20 63 °F /  17.2 °C 61.2 °F /  16.2 °C 29.9in /  1012.5hPa Calm     94% 0in /  0.0mm 0 W/m2
03:25 63 °F /  17.2 °C 61.2 °F /  16.2 °C 29.9in /  1012.5hPa Calm     94% 0in /  0.0mm 0 W/m2
03:30 63 °F /  17.2 °C 61.2 °F /  16.2 °C 29.9in /  1012.5hPa Calm     94% 0in /  0.0mm 0 W/m2
03:35 63 °F /  17.2 °C 61.5 °F /  16.4 °C 29.9in /  1012.9hPa Calm     95% 0in /  0.0mm 0 W/m2
03:40 63 °F /  17.2 °C 61.5 °F /  16.4 °C 29.9in /  1012.9hPa Calm     95% 0in /  0.0mm 0 W/m2
03:45 63 °F /  17.2 °C 61.5 °F /  16.4 °C 29.9in /  1012.5hPa Calm     95% 0in /  0.0mm 0 W/m2
03:50 63 °F /  17.2 °C 61.5 °F /  16.4 °C 29.9in /  1012.5hPa Calm     95% 0in /  0.0mm 0 W/m2
03:55 63 °F /  17.2 °C 61.5 °F /  16.4 °C 29.9in /  1012.5hPa Calm     95% 0in /  0.0mm 0 W/m2
04:00 63 °F /  17.2 °C 61.5 °F /  16.4 °C 29.9in /  1012.5hPa Calm     95% 0in /  0.0mm 0 W/m2
04:05 62.8 °F /  17.1 °C 61.3 °F /  16.3 °C 29.9in /  1012.5hPa Calm     95% 0in /  0.0mm 0 W/m2
04:10 62.8 °F /  17.1 °C 61.3 °F /  16.3 °C 29.9in /  1012.5hPa Calm     95% 0in /  0.0mm 0 W/m2
04:15 62.6 °F /  17 °C 61.2 °F /  16.2 °C 29.9in /  1012.5hPa Calm     95% 0in /  0.0mm 0 W/m2
04:20 62.4 °F /  16.9 °C 61 °F /  16.1 °C 29.9in /  1012.5hPa Calm     95% 0in /  0.0mm 0 W/m2
04:25 62.4 °F /  16.9 °C 61 °F /  16.1 °C 29.9in /  1012.5hPa Calm     95% 0in /  0.0mm 0 W/m2
04:30 62.2 °F /  16.8 °C 60.8 °F /  16 °C 29.9in /  1012.5hPa Calm     95% 0in /  0.0mm 0 W/m2
04:35 62.2 °F /  16.8 °C 60.8 °F /  16 °C 29.9in /  1012.5hPa Calm     95% 0in /  0.0mm 0 W/m2
04:40 62.1 °F /  16.7 °C 60.6 °F /  15.9 °C 29.9in /  1012.5hPa Calm     95% 0in /  0.0mm 0 W/m2
04:45 62.1 °F /  16.7 °C 60.6 °F /  15.9 °C 29.9in /  1012.5hPa Calm     95% 0in /  0.0mm 0 W/m2
04:50 61.9 °F /  16.6 °C 60.4 °F /  15.8 °C 29.9in /  1012.5hPa Calm     95% 0in /  0.0mm 0 W/m2
04:55 61.7 °F /  16.5 °C 60.3 °F /  15.7 °C 29.9in /  1012.5hPa Calm     95% 0in /  0.0mm 0 W/m2
05:01 61.5 °F /  16.4 °C 60.1 °F /  15.6 °C 29.9in /  1012.5hPa Calm     95% 0in /  0.0mm 0 W/m2
05:06 61.5 °F /  16.4 °C 60.1 °F /  15.6 °C 29.9in /  1012.5hPa Calm     95% 0in /  0.0mm 0 W/m2
05:11 61.5 °F /  16.4 °C 60.1 °F /  15.6 °C 29.9in /  1012.2hPa Calm     95% 0in /  0.0mm 0 W/m2
05:16 61.5 °F /  16.4 °C 60.1 °F /  15.6 °C 29.9in /  1012.5hPa Calm     95% 0in /  0.0mm 0 W/m2
05:21 61.5 °F /  16.4 °C 60.1 °F /  15.6 °C 29.9in /  1012.5hPa Calm     95% 0in /  0.0mm 0 W/m2
05:26 61.5 °F /  16.4 °C 60.1 °F /  15.6 °C 29.9in /  1012.2hPa Calm     95% 0in /  0.0mm 0 W/m2
05:31 61.3 °F /  16.3 °C 59.9 °F /  15.5 °C 29.9in /  1012.2hPa Calm     95% 0in /  0.0mm 0 W/m2
05:36 61.3 °F /  16.3 °C 59.9 °F /  15.5 °C 29.9in /  1012.2hPa Calm     95% 0in /  0.0mm 0 W/m2
05:41 61.3 °F /  16.3 °C 60.3 °F /  15.7 °C 29.9in /  1012.2hPa Calm     96% 0in /  0.0mm 0 W/m2
05:46 61.3 °F /  16.3 °C 60.3 °F /  15.7 °C 29.9in /  1012.2hPa Calm     96% 0in /  0.0mm 0 W/m2
05:51 61.3 °F /  16.3 °C 60.3 °F /  15.7 °C 29.9in /  1012.2hPa Calm     96% 0in /  0.0mm 0 W/m2
05:56 61.3 °F /  16.3 °C 60.3 °F /  15.7 °C 29.9in /  1012.2hPa Calm     96% 0in /  0.0mm 0 W/m2
06:01 61.2 °F /  16.2 °C 60.1 °F /  15.6 °C 29.9in /  1012.2hPa Calm     96% 0in /  0.0mm 0 W/m2
06:06 61.2 °F /  16.2 °C 60.1 °F /  15.6 °C 29.9in /  1012.2hPa Calm     96% 0in /  0.0mm 0 W/m2
06:11 61.2 °F /  16.2 °C 60.1 °F /  15.6 °C 29.9in /  1012.2hPa Calm     96% 0in /  0.0mm 0 W/m2
06:16 61 °F /  16.1 °C 59.9 °F /  15.5 °C 29.9in /  1012.2hPa Calm     96% 0in /  0.0mm 0 W/m2
06:21 61 °F /  16.1 °C 59.9 °F /  15.5 °C 29.9in /  1012.2hPa Calm     96% 0in /  0.0mm 0 W/m2
06:26 61 °F /  16.1 °C 59.9 °F /  15.5 °C 29.9in /  1012.2hPa Calm     96% 0in /  0.0mm 0 W/m2
06:31 60.8 °F /  16 °C 59.7 °F /  15.4 °C 29.9in /  1012.2hPa Calm     96% 0in /  0.0mm 0 W/m2
06:36 60.8 °F /  16 °C 59.7 °F /  15.4 °C 29.9in /  1012.2hPa Calm     96% 0in /  0.0mm 0 W/m2
06:41 61 °F /  16.1 °C 59.9 °F /  15.5 °C 29.9in /  1012.2hPa Calm     96% 0in /  0.0mm 0 W/m2
06:46 61 °F /  16.1 °C 59.9 °F /  15.5 °C 29.9in /  1012.2hPa Calm     96% 0in /  0.0mm 0 W/m2
06:51 60.8 °F /  16 °C 59.7 °F /  15.4 °C 29.9in /  1012.2hPa Calm     96% 0in /  0.0mm 0 W/m2
06:56 60.8 °F /  16 °C 59.7 °F /  15.4 °C 29.9in /  1012.2hPa Calm     96% 0in /  0.0mm 0 W/m2
07:01 61 °F /  16.1 °C 59.9 °F /  15.5 °C 29.9in /  1012.2hPa Calm     96% 0in /  0.0mm 0 W/m2
07:06 61.2 °F /  16.2 °C 60.1 °F /  15.6 °C 29.9in /  1012.5hPa Calm     96% 0in /  0.0mm 0 W/m2
07:11 61.2 °F /  16.2 °C 60.1 °F /  15.6 °C 29.9in /  1012.5hPa Calm     96% 0in /  0.0mm 0 W/m2
07:16 61.2 °F /  16.2 °C 60.1 °F /  15.6 °C 29.9in /  1012.5hPa Calm     96% 0in /  0.0mm 0 W/m2
07:21 61.2 °F /  16.2 °C 60.1 °F /  15.6 °C 29.9in /  1012.5hPa Calm     96% 0in /  0.0mm 0 W/m2
07:26 61.3 °F /  16.3 °C 60.3 °F /  15.7 °C 29.9in /  1012.5hPa Calm     96% 0in /  0.0mm 7 W/m2
07:31 61.3 °F /  16.3 °C 60.3 °F /  15.7 °C 29.9in /  1012.5hPa Calm     96% 0in /  0.0mm 11 W/m2
07:36 61.3 °F /  16.3 °C 60.3 °F /  15.7 °C 29.9in /  1012.5hPa Calm     96% 0in /  0.0mm 16 W/m2
07:41 61.5 °F /  16.4 °C 60.4 °F /  15.8 °C 29.9in /  1012.9hPa Calm     96% 0in /  0.0mm 18 W/m2
07:46 61.5 °F /  16.4 °C 60.4 °F /  15.8 °C 29.9in /  1012.9hPa Calm     96% 0in /  0.0mm 19 W/m2
07:51 61.5 °F /  16.4 °C 60.4 °F /  15.8 °C 29.9in /  1012.9hPa Calm     96% 0in /  0.0mm 21 W/m2
07:56 61.7 °F /  16.5 °C 60.6 °F /  15.9 °C 29.9in /  1012.9hPa Calm     96% 0in /  0.0mm 19 W/m2
08:01 61.9 °F /  16.6 °C 60.8 °F /  16 °C 29.9in /  1012.9hPa Calm     96% 0in /  0.0mm 23 W/m2
08:06 61.9 °F /  16.6 °C 61 °F /  16.1 °C 29.9in /  1012.9hPa Calm     97% 0in /  0.0mm 25 W/m2
08:11 61.9 °F /  16.6 °C 61 °F /  16.1 °C 29.9in /  1012.9hPa Calm     97% 0in /  0.0mm 19 W/m2
08:16 61.9 °F /  16.6 °C 61 °F /  16.1 °C 29.9in /  1012.9hPa Calm     97% 0in /  0.0mm 23 W/m2
08:21 62.1 °F /  16.7 °C 61.2 °F /  16.2 °C 29.9in /  1012.9hPa Calm     97% 0in /  0.0mm 23 W/m2
08:26 62.1 °F /  16.7 °C 61.2 °F /  16.2 °C 29.9in /  1012.9hPa Calm     97% 0in /  0.0mm 28 W/m2
08:31 62.2 °F /  16.8 °C 61.3 °F /  16.3 °C 29.9in /  1012.9hPa Calm     97% 0in /  0.0mm 33 W/m2
08:36 62.2 °F /  16.8 °C 61.3 °F /  16.3 °C 29.9in /  1012.9hPa Calm     97% 0in /  0.0mm 46 W/m2
08:41 62.2 °F /  16.8 °C 61.3 °F /  16.3 °C 29.9in /  1012.9hPa Calm     97% 0in /  0.0mm 67 W/m2
08:47 62.4 °F /  16.9 °C 61.5 °F /  16.4 °C 29.9in /  1012.9hPa Calm     97% 0in /  0.0mm 81 W/m2
08:52 62.4 °F /  16.9 °C 61.5 °F /  16.4 °C 29.9in /  1012.9hPa Calm     97% 0in /  0.0mm 67 W/m2
08:57 62.4 °F /  16.9 °C 61.5 °F /  16.4 °C 29.9in /  1013.2hPa Calm     97% 0in /  0.0mm 56 W/m2
09:02 62.6 °F /  17 °C 61.7 °F /  16.5 °C 29.9in /  1013.2hPa Calm     97% 0in /  0.0mm 49 W/m2
09:07 62.8 °F /  17.1 °C 61.9 °F /  16.6 °C 29.9in /  1013.2hPa Calm     97% 0in /  0.0mm 39 W/m2
09:12 62.8 °F /  17.1 °C 61.9 °F /  16.6 °C 29.9in /  1013.2hPa Calm     97% 0in /  0.0mm 56 W/m2
09:17 63 °F /  17.2 °C 62.1 °F /  16.7 °C 29.9in /  1013.2hPa East 2mph /  3.2km/h 2mph /  3.2km/h 97% 0in /  0.0mm 72 W/m2
09:22 63.1 °F /  17.3 °C 62.1 °F /  16.7 °C 29.9in /  1013.2hPa Calm   1mph /  1.6km/h 96% 0in /  0.0mm 83 W/m2
09:27 63.1 °F /  17.3 °C 62.1 °F /  16.7 °C 29.9in /  1013.2hPa Calm     96% 0in /  0.0mm 107 W/m2
09:32 63.3 °F /  17.4 °C 62.2 °F /  16.8 °C 29.9in /  1013.2hPa Calm   1mph /  1.6km/h 96% 0in /  0.0mm 132 W/m2
09:37 63.7 °F /  17.6 °C 62.6 °F /  17 °C 29.9in /  1013.2hPa NNW 0.9mph /  1.4km/h 1mph /  1.6km/h 96% 0in /  0.0mm 132 W/m2
09:42 64.2 °F /  17.9 °C 62.8 °F /  17.1 °C 29.9in /  1013.5hPa Calm   2mph /  3.2km/h 95% 0in /  0.0mm 95 W/m2
09:47 64.6 °F /  18.1 °C 62.8 °F /  17.1 °C 29.9in /  1013.5hPa SW 0.9mph /  1.4km/h 2mph /  3.2km/h 94% 0in /  0.0mm 98 W/m2
09:52 64.9 °F /  18.3 °C 62.8 °F /  17.1 °C 29.9in /  1013.5hPa Calm     93% 0in /  0.0mm 77 W/m2
09:57 65.1 °F /  18.4 °C 63 °F /  17.2 °C 29.9in /  1013.5hPa East 2.9mph /  4.7km/h 3mph /  4.8km/h 93% 0in /  0.0mm 104 W/m2
10:02 65.5 °F /  18.6 °C 62.8 °F /  17.1 °C 29.9in /  1013.5hPa East 2mph /  3.2km/h 2mph /  3.2km/h 91% 0in /  0.0mm 90 W/m2
10:07 65.7 °F /  18.7 °C 63 °F /  17.2 °C 29.9in /  1013.5hPa NNE 2mph /  3.2km/h 3mph /  4.8km/h 91% 0in /  0.0mm 81 W/m2
10:12 65.7 °F /  18.7 °C 62.6 °F /  17 °C 29.9in /  1013.5hPa Calm     90% 0in /  0.0mm 97 W/m2
10:17 65.8 °F /  18.8 °C 62.4 °F /  16.9 °C 29.9in /  1013.5hPa Calm   2mph /  3.2km/h 89% 0in /  0.0mm 123 W/m2
10:22 66 °F /  18.9 °C 63 °F /  17.2 °C 29.9in /  1013.5hPa ESE 2mph /  3.2km/h 2mph /  3.2km/h 90% 0in /  0.0mm 125 W/m2
10:27 66 °F /  18.9 °C 62.6 °F /  17 °C 29.9in /  1013.5hPa Calm   3mph /  4.8km/h 89% 0in /  0.0mm 171 W/m2
10:32 66.4 °F /  19.1 °C 63 °F /  17.2 °C 29.9in /  1013.5hPa NE 0.9mph /  1.4km/h 2mph /  3.2km/h 89% 0in /  0.0mm 225 W/m2
10:37 66.6 °F /  19.2 °C 63 °F /  17.2 °C 29.9in /  1013.5hPa Calm   2mph /  3.2km/h 88% 0in /  0.0mm 163 W/m2
10:42 66.7 °F /  19.3 °C 63.1 °F /  17.3 °C 29.9in /  1013.5hPa Calm     88% 0in /  0.0mm 146 W/m2
10:47 66.9 °F /  19.4 °C 63 °F /  17.2 °C 29.9in /  1013.9hPa Calm   3mph /  4.8km/h 87% 0in /  0.0mm 183 W/m2
10:52 67.1 °F /  19.5 °C 63.1 °F /  17.3 °C 29.9in /  1013.9hPa Calm   1mph /  1.6km/h 87% 0in /  0.0mm 183 W/m2
10:57 67.3 °F /  19.6 °C 63.3 °F /  17.4 °C 29.9in /  1013.9hPa ENE 2mph /  3.2km/h 2mph /  3.2km/h 87% 0in /  0.0mm 190 W/m2
11:02 67.5 °F /  19.7 °C 63.5 °F /  17.5 °C 29.9in /  1013.9hPa North 2mph /  3.2km/h 2mph /  3.2km/h 87% 0in /  0.0mm 220 W/m2
11:07 67.8 °F /  19.9 °C 63.5 °F /  17.5 °C 29.9in /  1013.9hPa ENE 0.9mph /  1.4km/h 2mph /  3.2km/h 86% 0in /  0.0mm 214 W/m2
11:12 68 °F /  20 °C 63.7 °F /  17.6 °C 29.9in /  1013.9hPa NNW 2mph /  3.2km/h 5mph /  8km/h 86% 0in /  0.0mm 186 W/m2
11:17 67.8 °F /  19.9 °C 63.5 °F /  17.5 °C 29.9in /  1013.9hPa Calm   4mph /  6.4km/h 86% 0in /  0.0mm 137 W/m2
11:22 67.8 °F /  19.9 °C 63.5 °F /  17.5 °C 29.9in /  1013.9hPa Calm   1mph /  1.6km/h 86% 0in /  0.0mm 125 W/m2
11:27 67.8 °F /  19.9 °C 63.5 °F /  17.5 °C 29.9in /  1013.9hPa Calm     86% 0in /  0.0mm 172 W/m2
11:32 68.2 °F /  20.1 °C 63.9 °F /  17.7 °C 29.9in /  1013.9hPa WNW 0.9mph /  1.4km/h 2mph /  3.2km/h 86% 0in /  0.0mm 160 W/m2
11:37 68.2 °F /  20.1 °C 63.5 °F /  17.5 °C 29.9in /  1013.9hPa Calm   2mph /  3.2km/h 85% 0in /  0.0mm 105 W/m2
11:42 68.2 °F /  20.1 °C 63.5 °F /  17.5 °C 29.9in /  1013.9hPa Calm   4mph /  6.4km/h 85% 0in /  0.0mm 86 W/m2
11:47 68.2 °F /  20.1 °C 63.9 °F /  17.7 °C 29.9in /  1013.9hPa Calm   1mph /  1.6km/h 86% 0in /  0.0mm 102 W/m2
11:52 68.4 °F /  20.2 °C 64 °F /  17.8 °C 30in /  1014.2hPa NE 0.9mph /  1.4km/h 4mph /  6.4km/h 86% 0in /  0.0mm 100 W/m2
11:57 68.4 °F /  20.2 °C 63.7 °F /  17.6 °C 30in /  1014.2hPa NW 0.9mph /  1.4km/h 6mph /  9.7km/h 85% 0in /  0.0mm 123 W/m2
12:02 68.4 °F /  20.2 °C 64 °F /  17.8 °C 29.9in /  1013.9hPa Calm   1mph /  1.6km/h 86% 0in /  0.0mm 120 W/m2
12:07 68.4 °F /  20.2 °C 63.7 °F /  17.6 °C 29.9in /  1013.9hPa Calm   2mph /  3.2km/h 85% 0in /  0.0mm 142 W/m2
12:12 68.4 °F /  20.2 °C 64 °F /  17.8 °C 29.9in /  1013.9hPa WNW 0.9mph /  1.4km/h 2mph /  3.2km/h 86% 0in /  0.0mm 200 W/m2
12:17 68.4 °F /  20.2 °C 64 °F /  17.8 °C 29.9in /  1013.9hPa Calm   1mph /  1.6km/h 86% 0in /  0.0mm 244 W/m2
12:22 68.5 °F /  20.3 °C 64.2 °F /  17.9 °C 30in /  1014.2hPa West 2mph /  3.2km/h 2mph /  3.2km/h 86% 0in /  0.0mm 287 W/m2
12:27 68.5 °F /  20.3 °C 64.2 °F /  17.9 °C 30in /  1014.2hPa NNE 2mph /  3.2km/h 3mph /  4.8km/h 86% 0in /  0.0mm 265 W/m2
12:32 68.7 °F /  20.4 °C 64 °F /  17.8 °C 29.9in /  1013.9hPa NNE 0.9mph /  1.4km/h 2mph /  3.2km/h 85% 0in /  0.0mm 244 W/m2
12:37 68.9 °F /  20.5 °C 64.2 °F /  17.9 °C 29.9in /  1013.9hPa WNW 0.9mph /  1.4km/h 4mph /  6.4km/h 85% 0in /  0.0mm 211 W/m2
12:42 69.1 °F /  20.6 °C 64.4 °F /  18 °C 29.9in /  1013.9hPa Calm   3mph /  4.8km/h 85% 0in /  0.0mm 193 W/m2
12:47 69.1 °F /  20.6 °C 64 °F /  17.8 °C 29.9in /  1013.9hPa West 2.9mph /  4.7km/h 6mph /  9.7km/h 84% 0in /  0.0mm 190 W/m2
12:52 69.1 °F /  20.6 °C 64.4 °F /  18 °C 29.9in /  1013.9hPa North 0.9mph /  1.4km/h 2mph /  3.2km/h 85% 0in /  0.0mm 237 W/m2
12:57 68.9 °F /  20.5 °C 63.9 °F /  17.7 °C 29.9in /  1013.9hPa WNW 0.9mph /  1.4km/h 6mph /  9.7km/h 84% 0in /  0.0mm 241 W/m2
13:02 69.1 °F /  20.6 °C 64.4 °F /  18 °C 29.9in /  1013.9hPa Calm   3mph /  4.8km/h 85% 0in /  0.0mm 209 W/m2
13:07 69.1 °F /  20.6 °C 64.4 °F /  18 °C 29.9in /  1013.9hPa ENE 0.9mph /  1.4km/h 4mph /  6.4km/h 85% 0in /  0.0mm 218 W/m2
13:12 69.1 °F /  20.6 °C 64.4 °F /  18 °C 29.9in /  1013.9hPa Calm   2mph /  3.2km/h 85% 0in /  0.0mm 350 W/m2
13:17 69.4 °F /  20.8 °C 64.8 °F /  18.2 °C 29.9in /  1013.9hPa SW 0.9mph /  1.4km/h 3mph /  4.8km/h 85% 0in /  0.0mm 381 W/m2
13:22 69.8 °F /  21 °C 64 °F /  17.8 °C 29.9in /  1013.9hPa West 0.9mph /  1.4km/h 3mph /  4.8km/h 82% 0in /  0.0mm 311 W/m2
13:27 70 °F /  21.1 °C 63.9 °F /  17.7 °C 29.9in /  1013.9hPa NNW 2.9mph /  4.7km/h 4mph /  6.4km/h 81% 0in /  0.0mm 255 W/m2
13:32 69.8 °F /  21 °C 64 °F /  17.8 °C 29.9in /  1013.9hPa WNW 2.9mph /  4.7km/h 3mph /  4.8km/h 82% 0in /  0.0mm 221 W/m2
13:37 69.6 °F /  20.9 °C 63.9 °F /  17.7 °C 29.9in /  1013.9hPa WNW 2.9mph /  4.7km/h 3mph /  4.8km/h 82% 0in /  0.0mm 262 W/m2
13:42 69.6 °F /  20.9 °C 63.9 °F /  17.7 °C 29.9in /  1013.9hPa NW 2mph /  3.2km/h 8mph /  12.9km/h 82% 0in /  0.0mm 269 W/m2
13:47 69.6 °F /  20.9 °C 63.9 °F /  17.7 °C 30in /  1014.2hPa West 2mph /  3.2km/h 5mph /  8km/h 82% 0in /  0.0mm 211 W/m2
13:52 69.6 °F /  20.9 °C 63.9 °F /  17.7 °C 29.9in /  1013.9hPa WNW 4.9mph /  7.9km/h 8mph /  12.9km/h 82% 0in /  0.0mm 359 W/m2
13:57 69.8 °F /  21 °C 64 °F /  17.8 °C 29.9in /  1013.9hPa NW 2.9mph /  4.7km/h 3mph /  4.8km/h 82% 0in /  0.0mm 392 W/m2
14:02 70.3 °F /  21.3 °C 64.6 °F /  18.1 °C 29.9in /  1013.9hPa SW 2mph /  3.2km/h 7mph /  11.3km/h 82% 0in /  0.0mm 255 W/m2
14:07 70.3 °F /  21.3 °C 64.2 °F /  17.9 °C 29.9in /  1013.9hPa ENE 0.9mph /  1.4km/h 4mph /  6.4km/h 81% 0in /  0.0mm 232 W/m2
14:12 70.2 °F /  21.2 °C 64 °F /  17.8 °C 29.9in /  1013.5hPa West 0.9mph /  1.4km/h 6mph /  9.7km/h 81% 0in /  0.0mm 195 W/m2
14:17 70.2 °F /  21.2 °C 64 °F /  17.8 °C 29.9in /  1013.9hPa ESE 2mph /  3.2km/h 4mph /  6.4km/h 81% 0in /  0.0mm 114 W/m2
14:22 70.2 °F /  21.2 °C 64.4 °F /  18 °C 29.9in /  1013.9hPa WSW 2mph /  3.2km/h 2mph /  3.2km/h 82% 0in /  0.0mm 74 W/m2
14:27 69.8 °F /  21 °C 64 °F /  17.8 °C 29.9in /  1013.9hPa WNW 0.9mph /  1.4km/h 4mph /  6.4km/h 82% 0in /  0.0mm 49 W/m2
14:32 69.3 °F /  20.7 °C 63.9 °F /  17.7 °C 29.9in /  1013.9hPa West 0.9mph /  1.4km/h 2mph /  3.2km/h 83% 0in /  0.0mm 56 W/m2
14:37 69.1 °F /  20.6 °C 64.4 °F /  18 °C 29.9in /  1013.9hPa West 0.9mph /  1.4km/h 2mph /  3.2km/h 85% 0.01in /  0.2mm 65 W/m2
14:42 68.5 °F /  20.3 °C 64.2 °F /  17.9 °C 29.9in /  1013.9hPa NW 4mph /  6.4km/h 7mph /  11.3km/h 86% 0.03in /  0.8mm 62 W/m2
14:47 67.5 °F /  19.7 °C 63.5 °F /  17.5 °C 29.9in /  1013.9hPa WNW 2.9mph /  4.7km/h 8mph /  12.9km/h 87% 0.14in /  3.6mm 118 W/m2
14:52 66.6 °F /  19.2 °C 63.1 °F /  17.3 °C 29.9in /  1013.9hPa WNW 2.9mph /  4.7km/h 4mph /  6.4km/h 89% 0.17in /  4.3mm 206 W/m2
14:57 66.2 °F /  19 °C 63.5 °F /  17.5 °C 29.9in /  1013.5hPa WNW 2mph /  3.2km/h 6mph /  9.7km/h 91% 0.18in /  4.6mm 229 W/m2
15:02 66.2 °F /  19 °C 63.9 °F /  17.7 °C 29.9in /  1013.5hPa NW 2mph /  3.2km/h 3mph /  4.8km/h 92% 0.18in /  4.6mm 202 W/m2
15:07 66.4 °F /  19.1 °C 64 °F /  17.8 °C 29.9in /  1013.5hPa West 0.9mph /  1.4km/h 4mph /  6.4km/h 92% 0.18in /  4.6mm 204 W/m2
15:12 66.4 °F /  19.1 °C 64.2 °F /  17.9 °C 29.9in /  1013.5hPa ENE 0.9mph /  1.4km/h 2mph /  3.2km/h 93% 0.18in /  4.6mm 206 W/m2
15:17 66.6 °F /  19.2 °C 64.4 °F /  18 °C 29.9in /  1013.5hPa NW 0.9mph /  1.4km/h 2mph /  3.2km/h 93% 0.19in /  4.8mm 214 W/m2
15:22 66.7 °F /  19.3 °C 64.6 °F /  18.1 °C 29.9in /  1013.5hPa WNW 2mph /  3.2km/h 2mph /  3.2km/h 93% 0.19in /  4.8mm 246 W/m2
15:27 66.9 °F /  19.4 °C 64.8 °F /  18.2 °C 29.9in /  1013.5hPa WNW 4mph /  6.4km/h 4mph /  6.4km/h 93% 0.19in /  4.8mm 325 W/m2
15:32 66.9 °F /  19.4 °C 64.8 °F /  18.2 °C 29.9in /  1013.5hPa WNW 2mph /  3.2km/h 5mph /  8km/h 93% 0.19in /  4.8mm 269 W/m2
15:37 67.1 °F /  19.5 °C 64.9 °F /  18.3 °C 29.9in /  1013.5hPa Calm   3mph /  4.8km/h 93% 0.18in /  4.6mm 211 W/m2
15:42 67.3 °F /  19.6 °C 65.1 °F /  18.4 °C 29.9in /  1013.5hPa WNW 2mph /  3.2km/h 5mph /  8km/h 93% 0.16in /  4.1mm 171 W/m2
15:47 67.3 °F /  19.6 °C 65.1 °F /  18.4 °C 29.9in /  1013.5hPa West 2.9mph /  4.7km/h 3mph /  4.8km/h 93% 0.04in /  1.0mm 169 W/m2
15:52 67.3 °F /  19.6 °C 64.9 °F /  18.3 °C 29.9in /  1013.5hPa Calm   4mph /  6.4km/h 92% 0.02in /  0.5mm 172 W/m2
15:57 67.3 °F /  19.6 °C 64.9 °F /  18.3 °C 29.9in /  1013.5hPa Calm   4mph /  6.4km/h 92% 0.01in /  0.2mm 165 W/m2
16:02 67.5 °F /  19.7 °C 65.1 °F /  18.4 °C 29.9in /  1013.5hPa Calm     92% 0.01in /  0.2mm 165 W/m2
16:07 67.5 °F /  19.7 °C 65.1 °F /  18.4 °C 29.9in /  1013.5hPa WNW 2mph /  3.2km/h 4mph /  6.4km/h 92% 0.01in /  0.2mm 211 W/m2
16:12 67.5 °F /  19.7 °C 65.1 °F /  18.4 °C 29.9in /  1013.5hPa West 0.9mph /  1.4km/h 2mph /  3.2km/h 92% 0.01in /  0.2mm 271 W/m2
16:17 67.5 °F /  19.7 °C 65.1 °F /  18.4 °C 29.9in /  1013.5hPa Calm   2mph /  3.2km/h 92% 0in /  0.0mm 267 W/m2
16:22 67.6 °F /  19.8 °C 65.3 °F /  18.5 °C 29.9in /  1013.5hPa Calm   3mph /  4.8km/h 92% 0in /  0.0mm 220 W/m2
16:27 67.6 °F /  19.8 °C 64.9 °F /  18.3 °C 29.9in /  1013.5hPa NW 2mph /  3.2km/h 3mph /  4.8km/h 91% 0in /  0.0mm 171 W/m2
16:32 67.6 °F /  19.8 °C 64.9 °F /  18.3 °C 29.9in /  1013.5hPa NNW 0.9mph /  1.4km/h 3mph /  4.8km/h 91% 0in /  0.0mm 176 W/m2
16:37 67.6 °F /  19.8 °C 64.9 °F /  18.3 °C 29.9in /  1013.5hPa NW 0.9mph /  1.4km/h 6mph /  9.7km/h 91% 0in /  0.0mm 206 W/m2
16:42 67.6 °F /  19.8 °C 64.9 °F /  18.3 °C 29.9in /  1013.5hPa Calm   2mph /  3.2km/h 91% 0in /  0.0mm 381 W/m2
16:47 68.2 °F /  20.1 °C 65.5 °F /  18.6 °C 29.9in /  1013.5hPa Calm   3mph /  4.8km/h 91% 0in /  0.0mm 522 W/m2
16:52 68.4 °F /  20.2 °C 65.3 °F /  18.5 °C 29.9in /  1013.5hPa Calm   2mph /  3.2km/h 90% 0in /  0.0mm 169 W/m2
16:57 68.4 °F /  20.2 °C 65.3 °F /  18.5 °C 29.9in /  1013.9hPa WNW 2mph /  3.2km/h 4mph /  6.4km/h 90% 0in /  0.0mm 158 W/m2
17:02 68.2 °F /  20.1 °C 64.8 °F /  18.2 °C 29.9in /  1013.5hPa Calm   2mph /  3.2km/h 89% 0in /  0.0mm 181 W/m2
17:07 68.4 °F /  20.2 °C 65.3 °F /  18.5 °C 29.9in /  1013.5hPa NW 0.9mph /  1.4km/h 1mph /  1.6km/h 90% 0in /  0.0mm 225 W/m2
17:12 68.4 °F /  20.2 °C 64.9 °F /  18.3 °C 29.9in /  1013.5hPa West 0.9mph /  1.4km/h 2mph /  3.2km/h 89% 0in /  0.0mm 272 W/m2
17:17 68.5 °F /  20.3 °C 65.1 °F /  18.4 °C 29.9in /  1013.9hPa WNW 2.9mph /  4.7km/h 3mph /  4.8km/h 89% 0in /  0.0mm 504 W/m2
17:22 68.7 °F /  20.4 °C 64.9 °F /  18.3 °C 29.9in /  1013.9hPa West 2.9mph /  4.7km/h 3mph /  4.8km/h 88% 0in /  0.0mm 367 W/m2
17:27 68.7 °F /  20.4 °C 64.8 °F /  18.2 °C 29.9in /  1013.5hPa NNW 0.9mph /  1.4km/h 3mph /  4.8km/h 87% 0in /  0.0mm 394 W/m2
17:32 69.1 °F /  20.6 °C 65.1 °F /  18.4 °C 29.9in /  1013.5hPa SSE 0.9mph /  1.4km/h 4mph /  6.4km/h 87% 0in /  0.0mm 352 W/m2
17:38 69.3 °F /  20.7 °C 64.9 °F /  18.3 °C 29.9in /  1013.5hPa SSW 0.9mph /  1.4km/h 1mph /  1.6km/h 86% 0in /  0.0mm 343 W/m2
17:43 69.6 °F /  20.9 °C 65.7 °F /  18.7 °C 29.9in /  1013.5hPa Calm   1mph /  1.6km/h 87% 0in /  0.0mm 262 W/m2
17:48 70.2 °F /  21.2 °C 66 °F /  18.9 °C 29.9in /  1013.5hPa North 0.9mph /  1.4km/h 1mph /  1.6km/h 87% 0in /  0.0mm 294 W/m2
17:53 70.2 °F /  21.2 °C 65.8 °F /  18.8 °C 29.9in /  1013.5hPa Calm     86% 0in /  0.0mm 294 W/m2
17:58 70.3 °F /  21.3 °C 65.7 °F /  18.7 °C 29.9in /  1013.5hPa Calm   1mph /  1.6km/h 85% 0in /  0.0mm 255 W/m2
18:03 70.3 °F /  21.3 °C 65.7 °F /  18.7 °C 29.9in /  1013.5hPa Calm   1mph /  1.6km/h 85% 0in /  0.0mm 204 W/m2
18:08 70.2 °F /  21.2 °C 65.1 °F /  18.4 °C 29.9in /  1013.5hPa Calm   2mph /  3.2km/h 84% 0in /  0.0mm 77 W/m2
18:13 70 °F /  21.1 °C 65.3 °F /  18.5 °C 29.9in /  1013.5hPa SSE 0.9mph /  1.4km/h 3mph /  4.8km/h 85% 0in /  0.0mm 69 W/m2
18:18 69.6 °F /  20.9 °C 65.3 °F /  18.5 °C 29.9in /  1013.5hPa Calm   1mph /  1.6km/h 86% 0in /  0.0mm 121 W/m2
18:23 69.3 °F /  20.7 °C 64.9 °F /  18.3 °C 29.9in /  1013.5hPa Calm   4mph /  6.4km/h 86% 0in /  0.0mm 76 W/m2
18:28 69.1 °F /  20.6 °C 65.1 °F /  18.4 °C 29.9in /  1013.5hPa Calm   1mph /  1.6km/h 87% 0in /  0.0mm 67 W/m2
18:33 68.9 °F /  20.5 °C 64.9 °F /  18.3 °C 29.9in /  1013.5hPa Calm   2mph /  3.2km/h 87% 0in /  0.0mm 65 W/m2
18:38 68.5 °F /  20.3 °C 64.8 °F /  18.2 °C 29.9in /  1013.5hPa Calm   1mph /  1.6km/h 88% 0in /  0.0mm 58 W/m2
18:43 68.5 °F /  20.3 °C 65.1 °F /  18.4 °C 29.9in /  1013.5hPa Calm     89% 0in /  0.0mm 49 W/m2
18:48 68.4 °F /  20.2 °C 64.9 °F /  18.3 °C 29.9in /  1013.5hPa Calm     89% 0in /  0.0mm 42 W/m2
18:53 68 °F /  20 °C 64.9 °F /  18.3 °C 29.9in /  1013.5hPa Calm   1mph /  1.6km/h 90% 0in /  0.0mm 33 W/m2
18:58 67.8 °F /  19.9 °C 64.8 °F /  18.2 °C 29.9in /  1013.5hPa Calm     90% 0in /  0.0mm 26 W/m2
19:03 67.6 °F /  19.8 °C 64.9 °F /  18.3 °C 29.9in /  1013.5hPa Calm   1mph /  1.6km/h 91% 0in /  0.0mm 23 W/m2
19:08 67.5 °F /  19.7 °C 64.8 °F /  18.2 °C 29.9in /  1013.5hPa East 0.9mph /  1.4km/h 1mph /  1.6km/h 91% 0in /  0.0mm 25 W/m2
19:13 67.3 °F /  19.6 °C 64.9 °F /  18.3 °C 29.9in /  1013.5hPa Calm     92% 0in /  0.0mm 25 W/m2
19:18 67.1 °F /  19.5 °C 64.8 °F /  18.2 °C 29.9in /  1013.5hPa Calm     92% 0in /  0.0mm 21 W/m2
19:23 66.7 °F /  19.3 °C 64.4 °F /  18 °C 29.9in /  1013.9hPa Calm   1mph /  1.6km/h 92% 0in /  0.0mm 21 W/m2
19:28 66.6 °F /  19.2 °C 64.2 °F /  17.9 °C 29.9in /  1013.9hPa Calm   1mph /  1.6km/h 92% 0in /  0.0mm 23 W/m2
19:33 66.4 °F /  19.1 °C 64.2 °F /  17.9 °C 29.9in /  1013.9hPa Calm     93% 0in /  0.0mm 21 W/m2
19:38 66.2 °F /  19 °C 64 °F /  17.8 °C 29.9in /  1013.9hPa Calm   2mph /  3.2km/h 93% 0in /  0.0mm 19 W/m2
19:43 66 °F /  18.9 °C 63.9 °F /  17.7 °C 29.9in /  1013.9hPa East 0.9mph /  1.4km/h 2mph /  3.2km/h 93% 0in /  0.0mm 12 W/m2
19:48 65.8 °F /  18.8 °C 63.7 °F /  17.6 °C 29.9in /  1013.9hPa Calm     93% 0in /  0.0mm 9 W/m2
19:53 65.8 °F /  18.8 °C 63.7 °F /  17.6 °C 29.9in /  1013.9hPa Calm     93% 0in /  0.0mm 5 W/m2
19:58 65.7 °F /  18.7 °C 63.5 °F /  17.5 °C 30in /  1014.2hPa Calm   1mph /  1.6km/h 93% 0in /  0.0mm 0 W/m2
20:03 65.5 °F /  18.6 °C 63.7 °F /  17.6 °C 30in /  1014.2hPa Calm   2mph /  3.2km/h 94% 0in /  0.0mm 0 W/m2
20:08 65.5 °F /  18.6 °C 63.7 °F /  17.6 °C 30in /  1014.2hPa Calm   2mph /  3.2km/h 94% 0in /  0.0mm 0 W/m2
20:13 65.5 °F /  18.6 °C 63.7 °F /  17.6 °C 30in /  1014.2hPa Calm   1mph /  1.6km/h 94% 0in /  0.0mm 0 W/m2
20:18 65.1 °F /  18.4 °C 63.3 °F /  17.4 °C 30in /  1014.2hPa Calm   1mph /  1.6km/h 94% 0in /  0.0mm 0 W/m2
20:23 65.1 °F /  18.4 °C 63.3 °F /  17.4 °C 30in /  1014.2hPa SSE 0.9mph /  1.4km/h 1mph /  1.6km/h 94% 0in /  0.0mm 0 W/m2
20:28 64.9 °F /  18.3 °C 63.1 °F /  17.3 °C 30in /  1014.6hPa Calm   2mph /  3.2km/h 94% 0in /  0.0mm 0 W/m2
20:33 64.9 °F /  18.3 °C 63.1 °F /  17.3 °C 30in /  1014.6hPa Calm     94% 0in /  0.0mm 0 W/m2
20:38 64.8 °F /  18.2 °C 63 °F /  17.2 °C 30in /  1014.6hPa Calm   1mph /  1.6km/h 94% 0in /  0.0mm 0 W/m2
20:43 64.8 °F /  18.2 °C 63 °F /  17.2 °C 30in /  1014.6hPa Calm   4mph /  6.4km/h 94% 0in /  0.0mm 0 W/m2
20:48 64.8 °F /  18.2 °C 63 °F /  17.2 °C 30in /  1014.6hPa Calm     94% 0in /  0.0mm 0 W/m2
20:53 64.6 °F /  18.1 °C 62.8 °F /  17.1 °C 30in /  1014.6hPa Calm   3mph /  4.8km/h 94% 0in /  0.0mm 0 W/m2
20:58 64.6 °F /  18.1 °C 62.8 °F /  17.1 °C 30in /  1014.9hPa NNE 0.9mph /  1.4km/h 1mph /  1.6km/h 94% 0in /  0.0mm 0 W/m2
21:03 64.8 °F /  18.2 °C 63 °F /  17.2 °C 30in /  1014.9hPa Calm   1mph /  1.6km/h 94% 0in /  0.0mm 0 W/m2
21:08 64.8 °F /  18.2 °C 63 °F /  17.2 °C 30in /  1014.9hPa Calm   1mph /  1.6km/h 94% 0in /  0.0mm 0 W/m2
21:13 64.9 °F /  18.3 °C 63.1 °F /  17.3 °C 30in /  1014.9hPa Calm   2mph /  3.2km/h 94% 0in /  0.0mm 0 W/m2
21:18 64.9 °F /  18.3 °C 62.8 °F /  17.1 °C 30in /  1014.9hPa NW 0.9mph /  1.4km/h 3mph /  4.8km/h 93% 0in /  0.0mm 0 W/m2
21:23 64.9 °F /  18.3 °C 62.8 °F /  17.1 °C 30in /  1015.2hPa North 2mph /  3.2km/h 2mph /  3.2km/h 93% 0in /  0.0mm 0 W/m2
21:28 65.1 °F /  18.4 °C 63 °F /  17.2 °C 30in /  1015.2hPa Calm   2mph /  3.2km/h 93% 0in /  0.0mm 0 W/m2
21:33 65.1 °F /  18.4 °C 63 °F /  17.2 °C 30in /  1015.2hPa Calm     93% 0in /  0.0mm 0 W/m2
21:38 64.9 °F /  18.3 °C 62.8 °F /  17.1 °C 30in /  1015.2hPa Calm     93% 0in /  0.0mm 0 W/m2
21:43 64.9 °F /  18.3 °C 62.8 °F /  17.1 °C 30in /  1015.2hPa Calm   3mph /  4.8km/h 93% 0in /  0.0mm 0 W/m2
21:48 64.8 °F /  18.2 °C 62.6 °F /  17 °C 30in /  1015.2hPa Calm   3mph /  4.8km/h 93% 0in /  0.0mm 0 W/m2
21:53 64.6 °F /  18.1 °C 62.4 °F /  16.9 °C 30in /  1015.2hPa Calm     93% 0in /  0.0mm 0 W/m2
21:58 64.6 °F /  18.1 °C 62.4 °F /  16.9 °C 30in /  1015.2hPa West 0.9mph /  1.4km/h 2mph /  3.2km/h 93% 0in /  0.0mm 0 W/m2
22:03 64.4 °F /  18 °C 62.4 °F /  16.9 °C 30in /  1015.2hPa Calm   1mph /  1.6km/h 93% 0in /  0.0mm 0 W/m2
22:08 64.4 °F /  18 °C 62.4 °F /  16.9 °C 30in /  1015.2hPa Calm     93% 0in /  0.0mm 0 W/m2
22:13 64.2 °F /  17.9 °C 62.2 °F /  16.8 °C 30in /  1015.2hPa Calm     93% 0in /  0.0mm 0 W/m2
22:18 64.2 °F /  17.9 °C 62.4 °F /  16.9 °C 30in /  1015.2hPa NW 0.9mph /  1.4km/h 1mph /  1.6km/h 94% 0in /  0.0mm 0 W/m2
22:23 64.2 °F /  17.9 °C 62.4 °F /  16.9 °C 30in /  1015.2hPa NW 2.9mph /  4.7km/h 4mph /  6.4km/h 94% 0in /  0.0mm 0 W/m2
22:28 64.2 °F /  17.9 °C 62.4 °F /  16.9 °C 30in /  1015.2hPa Calm   1mph /  1.6km/h 94% 0in /  0.0mm 0 W/m2
22:33 64.2 °F /  17.9 °C 62.4 °F /  16.9 °C 30in /  1015.2hPa East 4mph /  6.4km/h 4mph /  6.4km/h 94% 0in /  0.0mm 0 W/m2
22:38 64 °F /  17.8 °C 62.2 °F /  16.8 °C 30in /  1015.2hPa Calm   2mph /  3.2km/h 94% 0in /  0.0mm 0 W/m2
22:43 64 °F /  17.8 °C 62.2 °F /  16.8 °C 30in /  1015.2hPa East 2mph /  3.2km/h 2mph /  3.2km/h 94% 0in /  0.0mm 0 W/m2
22:48 64 °F /  17.8 °C 62.2 °F /  16.8 °C 30in /  1015.2hPa NE 0.9mph /  1.4km/h 4mph /  6.4km/h 94% 0in /  0.0mm 0 W/m2
22:53 64 °F /  17.8 °C 62.2 °F /  16.8 °C 30in /  1015.2hPa Calm   2mph /  3.2km/h 94% 0in /  0.0mm 0 W/m2
22:58 64 °F /  17.8 °C 62.2 °F /  16.8 °C 30in /  1015.2hPa Calm   4mph /  6.4km/h 94% 0in /  0.0mm 0 W/m2
23:03 64 °F /  17.8 °C 62.2 °F /  16.8 °C 30in /  1015.2hPa Calm   1mph /  1.6km/h 94% 0in /  0.0mm 0 W/m2
23:08 64 °F /  17.8 °C 62.2 °F /  16.8 °C 30in /  1015.2hPa Calm   2mph /  3.2km/h 94% 0in /  0.0mm 0 W/m2
23:13 63.9 °F /  17.7 °C 62.1 °F /  16.7 °C 30in /  1015.2hPa Calm   1mph /  1.6km/h 94% 0in /  0.0mm 0 W/m2
23:18 63.9 °F /  17.7 °C 62.1 °F /  16.7 °C 30in /  1015.2hPa Calm   2mph /  3.2km/h 94% 0in /  0.0mm 0 W/m2
23:23 63.7 °F /  17.6 °C 61.9 °F /  16.6 °C 30in /  1015.2hPa Calm   1mph /  1.6km/h 94% 0in /  0.0mm 0 W/m2
23:28 63.7 °F /  17.6 °C 61.9 °F /  16.6 °C 30in /  1015.2hPa Calm     94% 0in /  0.0mm 0 W/m2
23:33 63.5 °F /  17.5 °C 61.7 °F /  16.5 °C 30in /  1015.2hPa Calm   2mph /  3.2km/h 94% 0in /  0.0mm 0 W/m2
23:38 63.3 °F /  17.4 °C 61.5 °F /  16.4 °C 30in /  1015.6hPa Calm     94% 0in /  0.0mm 0 W/m2
23:43 63.1 °F /  17.3 °C 61.3 °F /  16.3 °C 30in /  1015.6hPa Calm   2mph /  3.2km/h 94% 0in /  0.0mm 0 W/m2
23:48 63 °F /  17.2 °C 61.2 °F /  16.2 °C 30in /  1015.6hPa Calm   1mph /  1.6km/h 94% 0in /  0.0mm 0 W/m2
23:53 63 °F /  17.2 °C 61.2 °F /  16.2 °C 30in /  1015.6hPa Calm   1mph /  1.6km/h 94% 0in /  0.0mm 0 W/m2
23:58 63 °F /  17.2 °C 61.5 °F /  16.4 °C 30in /  1015.6hPa Calm     95% 0in /  0.0mm 0 W/m2
Juneau County Weather
Compliments of Weather Underground - 4 mb